Bitte die für das Benutzerkonto hinterlegte E-Mail-Adresse eingeben. Der Benutzername wird dann an diese E-Mail-Adresse geschickt.

 

 

 
NEU! ab. 1.4.
Nortel Info 128,740 MHz

WebCam

  
Kamera Halle
Kamera Vorfeld
Wetter EDDS

METAR

EDDS 171450Z 20006KT 110V250 9999 SCT070CB SCT080TCU 27/14 Q1015 TEMPO 30015G30KT 4000 TSRA =


TAF

EDDS 171100Z 1712/1812 30007KT 9999 SCT045 TEMPO 1712/1715 30015G25KT TSRA BKN040CB PROB30 TEMPO 1720/1803 30015G25KT 4000 TSRA BKN012CB PROB30 TEMPO 1803/1807 BKN012 =


SR/SS

04:18 / 18:32 UTC
(EDSO 17-08-2018)